sensor_id;sensor_type;location;lat;lon;timestamp;pressure;altitude;pressure_sealevel;temperature;humidity
60061;BME280;45933;51.336;12.612;2023-05-22T00:00:03;99853.19;;;20.85;51.51
60061;BME280;45933;51.336;12.612;2023-05-22T00:02:32;99848.81;;;20.84;51.41
60061;BME280;45933;51.336;12.612;2023-05-22T00:04:57;99848.13;;;20.80;51.49
60061;BME280;45933;51.336;12.612;2023-05-22T00:07:24;99847.28;;;20.80;51.30
60061;BME280;45933;51.336;12.612;2023-05-22T00:09:51;99845.63;;;20.77;51.50
60061;BME280;45933;51.336;12.612;2023-05-22T00:12:18;99844.09;;;20.73;51.66
60061;BME280;45933;51.336;12.612;2023-05-22T00:14:43;99847.59;;;20.74;51.56
60061;BME280;45933;51.336;12.612;2023-05-22T00:17:08;99841.56;;;20.70;51.42
60061;BME280;45933;51.336;12.612;2023-05-22T00:19:34;99844.31;;;20.69;51.60
60061;BME280;45933;51.336;12.612;2023-05-22T00:21:59;99841.81;;;20.66;51.63
60061;BME280;45933;51.336;12.612;2023-05-22T00:24:25;99841.81;;;20.66;51.58
60061;BME280;45933;51.336;12.612;2023-05-22T00:26:50;99835.84;;;20.62;51.81
60061;BME280;45933;51.336;12.612;2023-05-22T00:29:15;99840.31;;;20.60;51.72
60061;BME280;45933;51.336;12.612;2023-05-22T00:31:40;99837.91;;;20.55;51.83
60061;BME280;45933;51.336;12.612;2023-05-22T00:34:06;99834.50;;;20.53;51.64
60061;BME280;45933;51.336;12.612;2023-05-22T00:36:31;99840.09;;;20.47;51.99
60061;BME280;45933;51.336;12.612;2023-05-22T00:38:56;99842.88;;;20.44;52.04
60061;BME280;45933;51.336;12.612;2023-05-22T00:41:21;99843.09;;;20.40;52.27
60061;BME280;45933;51.336;12.612;2023-05-22T00:43:47;99830.03;;;20.36;52.33
60061;BME280;45933;51.336;12.612;2023-05-22T00:46:14;99835.44;;;20.33;52.12
60061;BME280;45933;51.336;12.612;2023-05-22T00:48:45;99831.31;;;20.28;52.43
60061;BME280;45933;51.336;12.612;2023-05-22T00:51:10;99833.25;;;20.24;52.55
60061;BME280;45933;51.336;12.612;2023-05-22T00:53:36;99833.41;;;20.21;52.45
60061;BME280;45933;51.336;12.612;2023-05-22T00:56:02;99829.06;;;20.20;52.41
60061;BME280;45933;51.336;12.612;2023-05-22T00:58:27;99830.06;;;20.18;52.44
60061;BME280;45933;51.336;12.612;2023-05-22T01:00:53;99824.22;;;20.11;52.50
60061;BME280;45933;51.336;12.612;2023-05-22T01:03:19;99822.81;;;20.04;52.79
60061;BME280;45933;51.336;12.612;2023-05-22T01:05:50;99824.56;;;20.03;52.63
60061;BME280;45933;51.336;12.612;2023-05-22T01:08:16;99816.81;;;20.00;52.58
60061;BME280;45933;51.336;12.612;2023-05-22T01:10:41;99827.53;;;19.97;52.69
60061;BME280;45933;51.336;12.612;2023-05-22T01:13:17;99824.97;;;19.96;52.59
60061;BME280;45933;51.336;12.612;2023-05-22T01:15:56;99831.03;;;19.98;52.48
60061;BME280;45933;51.336;12.612;2023-05-22T01:18:31;99832.19;;;19.92;52.84
60061;BME280;45933;51.336;12.612;2023-05-22T01:21:10;99826.03;;;19.92;52.45
60061;BME280;45933;51.336;12.612;2023-05-22T01:23:59;99825.25;;;19.90;52.36
60061;BME280;45933;51.336;12.612;2023-05-22T01:29:29;99827.63;;;19.77;52.61
60061;BME280;45933;51.336;12.612;2023-05-22T01:32:01;99822.50;;;19.74;52.92
60061;BME280;45933;51.336;12.612;2023-05-22T01:34:29;99838.44;;;19.72;52.85
60061;BME280;45933;51.336;12.612;2023-05-22T01:36:56;99837.78;;;19.67;52.94
60061;BME280;45933;51.336;12.612;2023-05-22T01:39:21;99830.75;;;19.66;52.77
60061;BME280;45933;51.336;12.612;2023-05-22T01:41:48;99836.22;;;19.63;52.78
60061;BME280;45933;51.336;12.612;2023-05-22T01:44:14;99837.16;;;19.62;52.50
60061;BME280;45933;51.336;12.612;2023-05-22T01:46:39;99832.75;;;19.61;52.79
60061;BME280;45933;51.336;12.612;2023-05-22T01:49:05;99836.47;;;19.57;52.76
60061;BME280;45933;51.336;12.612;2023-05-22T01:54:16;99836.59;;;19.54;52.71
60061;BME280;45933;51.336;12.612;2023-05-22T01:57:11;99833.56;;;19.63;52.26
60061;BME280;45933;51.336;12.612;2023-05-22T01:59:52;99839.31;;;19.52;52.91
60061;BME280;45933;51.336;12.612;2023-05-22T02:02:22;99839.63;;;19.46;53.10
60061;BME280;45933;51.336;12.612;2023-05-22T02:04:52;99842.31;;;19.45;53.17
60061;BME280;45933;51.336;12.612;2023-05-22T02:07:21;99847.78;;;19.40;53.15
60061;BME280;45933;51.336;12.612;2023-05-22T02:09:47;99848.03;;;19.36;53.25
60061;BME280;45933;51.336;12.612;2023-05-22T02:12:14;99841.94;;;19.33;53.05
60061;BME280;45933;51.336;12.612;2023-05-22T02:14:41;99839.44;;;19.30;53.03
60061;BME280;45933;51.336;12.612;2023-05-22T02:17:07;99843.94;;;19.28;53.20
60061;BME280;45933;51.336;12.612;2023-05-22T02:19:33;99835.97;;;19.30;53.09
60061;BME280;45933;51.336;12.612;2023-05-22T02:22:00;99834.28;;;19.27;53.04
60061;BME280;45933;51.336;12.612;2023-05-22T02:24:25;99837.88;;;19.26;53.06
60061;BME280;45933;51.336;12.612;2023-05-22T02:26:50;99835.44;;;19.22;53.14
60061;BME280;45933;51.336;12.612;2023-05-22T02:29:15;99825.84;;;19.19;53.05
60061;BME280;45933;51.336;12.612;2023-05-22T02:31:41;99830.34;;;19.17;52.94
60061;BME280;45933;51.336;12.612;2023-05-22T02:34:06;99833.16;;;19.14;53.17
60061;BME280;45933;51.336;12.612;2023-05-22T02:36:31;99832.50;;;19.09;53.17
60061;BME280;45933;51.336;12.612;2023-05-22T02:38:57;99827.25;;;19.07;53.25
60061;BME280;45933;51.336;12.612;2023-05-22T02:41:23;99827.44;;;19.03;53.45
60061;BME280;45933;51.336;12.612;2023-05-22T02:43:49;99826.75;;;18.99;53.19
60061;BME280;45933;51.336;12.612;2023-05-22T02:46:14;99825.91;;;18.99;53.19
60061;BME280;45933;51.336;12.612;2023-05-22T02:48:39;99825.16;;;18.95;53.27
60061;BME280;45933;51.336;12.612;2023-05-22T02:51:05;99829.66;;;18.93;52.98
60061;BME280;45933;51.336;12.612;2023-05-22T02:53:30;99817.44;;;18.91;53.14
60061;BME280;45933;51.336;12.612;2023-05-22T02:55:57;99819.34;;;18.87;53.23
60061;BME280;45933;51.336;12.612;2023-05-22T02:58:23;99825.56;;;18.86;53.18
60061;BME280;45933;51.336;12.612;2023-05-22T03:00:49;99827.50;;;18.83;53.13
60061;BME280;45933;51.336;12.612;2023-05-22T03:03:16;99819.69;;;18.79;52.95
60061;BME280;45933;51.336;12.612;2023-05-22T03:05:42;99810.09;;;18.77;53.15
60061;BME280;45933;51.336;12.612;2023-05-22T03:08:07;99817.31;;;18.73;53.03
60061;BME280;45933;51.336;12.612;2023-05-22T03:10:32;99817.41;;;18.72;53.17
60061;BME280;45933;51.336;12.612;2023-05-22T03:12:57;99810.47;;;18.69;53.34
60061;BME280;45933;51.336;12.612;2023-05-22T03:15:23;99809.59;;;18.69;53.19
60061;BME280;45933;51.336;12.612;2023-05-22T03:17:48;99807.00;;;18.67;53.30
60061;BME280;45933;51.336;12.612;2023-05-22T03:20:13;99807.13;;;18.64;53.39
60061;BME280;45933;51.336;12.612;2023-05-22T03:22:42;99807.25;;;18.61;53.49
60061;BME280;45933;51.336;12.612;2023-05-22T03:25:09;99806.47;;;18.59;53.57
60061;BME280;45933;51.336;12.612;2023-05-22T03:27:34;99805.59;;;18.59;53.43
60061;BME280;45933;51.336;12.612;2023-05-22T03:30:00;99810.03;;;18.58;53.55
60061;BME280;45933;51.336;12.612;2023-05-22T03:32:25;99803.81;;;18.59;53.41
60061;BME280;45933;51.336;12.612;2023-05-22T03:34:51;99806.47;;;18.59;53.51
60061;BME280;45933;51.336;12.612;2023-05-22T03:37:16;99807.38;;;18.58;53.87
60061;BME280;45933;51.336;12.612;2023-05-22T03:39:41;99817.09;;;18.58;53.41
60061;BME280;45933;51.336;12.612;2023-05-22T03:42:06;99812.75;;;18.57;53.48
60061;BME280;45933;51.336;12.612;2023-05-22T03:44:32;99812.75;;;18.57;53.44
60061;BME280;45933;51.336;12.612;2023-05-22T03:46:57;99811.00;;;18.55;53.30
60061;BME280;45933;51.336;12.612;2023-05-22T03:49:22;99808.50;;;18.52;53.50
60061;BME280;45933;51.336;12.612;2023-05-22T03:51:47;99811.00;;;18.55;53.53
60061;BME280;45933;51.336;12.612;2023-05-22T03:54:13;99804.09;;;18.53;53.52
60061;BME280;45933;51.336;12.612;2023-05-22T03:56:38;99803.16;;;18.54;53.67
60061;BME280;45933;51.336;12.612;2023-05-22T03:59:03;99808.44;;;18.54;53.80
60061;BME280;45933;51.336;12.612;2023-05-22T04:01:29;99811.00;;;18.55;53.59
60061;BME280;45933;51.336;12.612;2023-05-22T04:03:55;99811.00;;;18.55;53.61
60061;BME280;45933;51.336;12.612;2023-05-22T04:06:20;99808.31;;;18.57;53.63
60061;BME280;45933;51.336;12.612;2023-05-22T04:08:46;99810.09;;;18.57;53.72
60061;BME280;45933;51.336;12.612;2023-05-22T04:11:12;99802.97;;;18.59;53.69
60061;BME280;45933;51.336;12.612;2023-05-22T04:13:39;99804.69;;;18.60;53.71
60061;BME280;45933;51.336;12.612;2023-05-22T04:16:05;99806.34;;;18.62;53.45
60061;BME280;45933;51.336;12.612;2023-05-22T04:18:30;99811.47;;;18.65;53.67
60061;BME280;45933;51.336;12.612;2023-05-22T04:20:55;99811.44;;;18.67;53.71
60061;BME280;45933;51.336;12.612;2023-05-22T04:23:21;99808.75;;;18.68;53.53
60061;BME280;45933;51.336;12.612;2023-05-22T04:25:46;99810.47;;;18.69;53.53
60061;BME280;45933;51.336;12.612;2023-05-22T04:28:12;99816.50;;;18.71;53.42
60061;BME280;45933;51.336;12.612;2023-05-22T04:30:37;99813.75;;;18.74;53.51
60061;BME280;45933;51.336;12.612;2023-05-22T04:33:04;99811.84;;;18.78;53.22
60061;BME280;45933;51.336;12.612;2023-05-22T04:35:29;99821.47;;;18.79;53.59
60061;BME280;45933;51.336;12.612;2023-05-22T04:37:55;99810.78;;;18.82;53.40
60061;BME280;45933;51.336;12.612;2023-05-22T04:40:21;99813.38;;;18.84;53.19
60061;BME280;45933;51.336;12.612;2023-05-22T04:42:46;99818.38;;;18.90;53.00
60061;BME280;45933;51.336;12.612;2023-05-22T04:45:11;99814.72;;;18.92;53.09
60061;BME280;45933;51.336;12.612;2023-05-22T04:47:38;99817.31;;;18.94;53.10
60061;BME280;45933;51.336;12.612;2023-05-22T04:50:06;99815.44;;;18.96;53.11
60061;BME280;45933;51.336;12.612;2023-05-22T04:52:31;99813.47;;;19.01;52.61
60061;BME280;45933;51.336;12.612;2023-05-22T04:54:56;99818.56;;;19.05;52.77
60061;BME280;45933;51.336;12.612;2023-05-22T04:57:22;99813.06;;;19.10;53.01
60061;BME280;45933;51.336;12.612;2023-05-22T04:59:49;99814.69;;;19.13;52.70
60061;BME280;45933;51.336;12.612;2023-05-22T05:02:16;99823.34;;;19.16;52.88
60061;BME280;45933;51.336;12.612;2023-05-22T05:04:41;99815.16;;;19.22;53.10
60061;BME280;45933;51.336;12.612;2023-05-22T05:07:07;99807.13;;;19.24;52.87
60061;BME280;45933;51.336;12.612;2023-05-22T05:09:32;99805.94;;;19.31;53.17
60061;BME280;45933;51.336;12.612;2023-05-22T05:11:58;99808.44;;;19.34;52.84
60061;BME280;45933;51.336;12.612;2023-05-22T05:14:23;99810.03;;;19.38;52.62
60061;BME280;45933;51.336;12.612;2023-05-22T05:16:49;99817.66;;;19.44;52.97
60061;BME280;45933;51.336;12.612;2023-05-22T05:19:19;99817.44;;;19.49;52.71
60061;BME280;45933;51.336;12.612;2023-05-22T05:21:46;99811.88;;;19.55;52.99
60061;BME280;45933;51.336;12.612;2023-05-22T05:24:11;99804.63;;;19.60;52.89
60061;BME280;45933;51.336;12.612;2023-05-22T05:26:37;99809.59;;;19.66;52.59
60061;BME280;45933;51.336;12.612;2023-05-22T05:29:02;99796.03;;;19.74;52.74
60061;BME280;45933;51.336;12.612;2023-05-22T05:31:27;99802.81;;;19.79;52.57
60061;BME280;45933;51.336;12.612;2023-05-22T05:33:52;99801.53;;;19.88;52.59
60061;BME280;45933;51.336;12.612;2023-05-22T05:36:20;99805.72;;;19.92;52.62
60061;BME280;45933;51.336;12.612;2023-05-22T05:38:45;99801.69;;;20.02;52.58
60061;BME280;45933;51.336;12.612;2023-05-22T05:41:11;99804.84;;;20.10;52.21
60061;BME280;45933;51.336;12.612;2023-05-22T05:43:36;99806.97;;;20.21;51.97
60061;BME280;45933;51.336;12.612;2023-05-22T05:46:01;99815.34;;;20.29;51.90
60061;BME280;45933;51.336;12.612;2023-05-22T05:48:27;99809.69;;;20.37;51.83
60061;BME280;45933;51.336;12.612;2023-05-22T05:50:52;99804.09;;;20.43;51.53
60061;BME280;45933;51.336;12.612;2023-05-22T05:53:17;99799.22;;;20.53;51.34
60061;BME280;45933;51.336;12.612;2023-05-22T05:55:43;99807.56;;;20.62;51.18
60061;BME280;45933;51.336;12.612;2023-05-22T05:58:08;99806.22;;;20.71;51.13
60061;BME280;45933;51.336;12.612;2023-05-22T06:00:33;99801.28;;;20.81;51.31
60061;BME280;45933;51.336;12.612;2023-05-22T06:02:58;99804.56;;;20.86;51.08
60061;BME280;45933;51.336;12.612;2023-05-22T06:05:24;99796.91;;;20.97;50.97
60061;BME280;45933;51.336;12.612;2023-05-22T06:07:51;99792.81;;;21.07;51.20
60061;BME280;45933;51.336;12.612;2023-05-22T06:10:16;99805.50;;;21.18;51.01
60061;BME280;45933;51.336;12.612;2023-05-22T06:12:41;99806.72;;;21.28;50.89
60061;BME280;45933;51.336;12.612;2023-05-22T06:15:07;99801.91;;;21.36;50.74
60061;BME280;45933;51.336;12.612;2023-05-22T06:17:33;99799.78;;;21.43;51.05
60061;BME280;45933;51.336;12.612;2023-05-22T06:19:59;99802.69;;;21.54;50.73
60061;BME280;45933;51.336;12.612;2023-05-22T06:22:25;99801.31;;;21.63;49.91
60061;BME280;45933;51.336;12.612;2023-05-22T06:24:51;99809.69;;;21.71;50.35
60061;BME280;45933;51.336;12.612;2023-05-22T06:27:19;99796.88;;;21.79;50.44
60061;BME280;45933;51.336;12.612;2023-05-22T06:29:46;99798.91;;;21.90;50.08
60061;BME280;45933;51.336;12.612;2023-05-22T06:32:11;99796.00;;;21.95;49.76
60061;BME280;45933;51.336;12.612;2023-05-22T06:34:37;99791.03;;;22.04;49.46
60061;BME280;45933;51.336;12.612;2023-05-22T06:37:02;99795.13;;;22.10;50.15
60061;BME280;45933;51.336;12.612;2023-05-22T06:39:27;99793.69;;;22.20;49.71
60061;BME280;45933;51.336;12.612;2023-05-22T06:41:53;99790.56;;;22.28;49.36
60061;BME280;45933;51.336;12.612;2023-05-22T06:44:18;99791.16;;;22.33;49.23
60061;BME280;45933;51.336;12.612;2023-05-22T06:46:44;99795.09;;;22.41;49.41
60061;BME280;45933;51.336;12.612;2023-05-22T06:49:09;99791.97;;;22.49;49.29
60061;BME280;45933;51.336;12.612;2023-05-22T06:51:34;99793.59;;;22.52;49.25
60061;BME280;45933;51.336;12.612;2023-05-22T06:54:00;99793.88;;;22.61;49.03
60061;BME280;45933;51.336;12.612;2023-05-22T06:56:27;99789.06;;;22.68;49.20
60061;BME280;45933;51.336;12.612;2023-05-22T06:58:52;99790.41;;;22.75;48.70
60061;BME280;45933;51.336;12.612;2023-05-22T07:01:18;99799.63;;;22.84;49.33
60061;BME280;45933;51.336;12.612;2023-05-22T07:03:43;99793.88;;;22.91;48.92
60061;BME280;45933;51.336;12.612;2023-05-22T07:06:08;99802.25;;;23.00;49.12
60061;BME280;45933;51.336;12.612;2023-05-22T07:08:33;99801.00;;;23.05;48.79
60061;BME280;45933;51.336;12.612;2023-05-22T07:10:59;99794.53;;;23.09;48.27
60061;BME280;45933;51.336;12.612;2023-05-22T07:13:25;99796.63;;;23.18;47.95
60061;BME280;45933;51.336;12.612;2023-05-22T07:15:51;99791.88;;;23.23;47.74
60061;BME280;45933;51.336;12.612;2023-05-22T07:18:16;99790.34;;;23.34;47.86
60061;BME280;45933;51.336;12.612;2023-05-22T07:20:41;99798.59;;;23.43;48.10
60061;BME280;45933;51.336;12.612;2023-05-22T07:23:06;99799.06;;;23.50;47.59
60061;BME280;45933;51.336;12.612;2023-05-22T07:25:33;99785.28;;;23.58;47.33
60061;BME280;45933;51.336;12.612;2023-05-22T07:27:58;99783.13;;;23.64;47.18
60061;BME280;45933;51.336;12.612;2023-05-22T07:30:26;99784.13;;;23.76;46.86
60061;BME280;45933;51.336;12.612;2023-05-22T07:32:51;99780.50;;;23.77;46.91
60061;BME280;45933;51.336;12.612;2023-05-22T07:35:16;99779.91;;;23.86;45.82
60061;BME280;45933;51.336;12.612;2023-05-22T07:37:41;99784.44;;;23.98;45.56
60061;BME280;45933;51.336;12.612;2023-05-22T07:40:07;99783.72;;;24.09;46.77
60061;BME280;45933;51.336;12.612;2023-05-22T07:42:34;99781.22;;;24.20;45.89
60061;BME280;45933;51.336;12.612;2023-05-22T07:45:00;99780.59;;;24.30;46.74
60061;BME280;45933;51.336;12.612;2023-05-22T07:47:25;99786.91;;;24.41;46.13
60061;BME280;45933;51.336;12.612;2023-05-22T07:49:51;99784.50;;;24.51;45.83
60061;BME280;45933;51.336;12.612;2023-05-22T07:52:16;99785.56;;;24.61;45.46
60061;BME280;45933;51.336;12.612;2023-05-22T07:54:41;99780.47;;;24.71;45.24
60061;BME280;45933;51.336;12.612;2023-05-22T07:57:06;99786.25;;;24.90;45.88
60061;BME280;45933;51.336;12.612;2023-05-22T07:59:32;99781.97;;;25.00;45.18
60061;BME280;45933;51.336;12.612;2023-05-22T08:01:57;99787.22;;;25.15;45.27
60061;BME280;45933;51.336;12.612;2023-05-22T08:04:23;99782.59;;;25.29;44.80
60061;BME280;45933;51.336;12.612;2023-05-22T08:06:48;99777.13;;;25.44;45.27
60061;BME280;45933;51.336;12.612;2023-05-22T08:09:13;99777.84;;;25.59;44.81
60061;BME280;45933;51.336;12.612;2023-05-22T08:11:39;99773.22;;;25.73;43.19
60061;BME280;45933;51.336;12.612;2023-05-22T08:14:06;99779.50;;;25.85;43.23
60061;BME280;45933;51.336;12.612;2023-05-22T08:16:31;99777.41;;;26.01;44.26
60061;BME280;45933;51.336;12.612;2023-05-22T08:18:57;99780.00;;;26.14;43.66
60061;BME280;45933;51.336;12.612;2023-05-22T08:21:22;99773.63;;;26.28;43.86
60061;BME280;45933;51.336;12.612;2023-05-22T08:23:47;99779.72;;;26.41;43.28
60061;BME280;45933;51.336;12.612;2023-05-22T08:26:13;99775.41;;;26.51;43.47
60061;BME280;45933;51.336;12.612;2023-05-22T08:28:39;99778.38;;;26.71;43.82
60061;BME280;45933;51.336;12.612;2023-05-22T08:31:11;99777.56;;;26.81;42.32
60061;BME280;45933;51.336;12.612;2023-05-22T08:33:36;99775.63;;;26.95;42.60
60061;BME280;45933;51.336;12.612;2023-05-22T08:36:02;99768.38;;;27.08;42.08
60061;BME280;45933;51.336;12.612;2023-05-22T08:38:27;99770.31;;;27.17;41.34
60061;BME280;45933;51.336;12.612;2023-05-22T08:40:53;99770.78;;;27.33;42.07
60061;BME280;45933;51.336;12.612;2023-05-22T08:43:21;99767.88;;;27.48;40.85
60061;BME280;45933;51.336;12.612;2023-05-22T08:45:51;99757.63;;;27.64;40.93
60061;BME280;45933;51.336;12.612;2023-05-22T08:48:21;99760.28;;;27.75;40.17
60061;BME280;45933;51.336;12.612;2023-05-22T08:50:52;99767.56;;;27.84;40.62
60061;BME280;45933;51.336;12.612;2023-05-22T08:53:22;99757.41;;;27.99;38.73
60061;BME280;45933;51.336;12.612;2023-05-22T08:55:48;99765.00;;;28.15;39.46
60061;BME280;45933;51.336;12.612;2023-05-22T08:58:14;99753.00;;;28.30;38.83
60061;BME280;45933;51.336;12.612;2023-05-22T09:00:40;99752.31;;;28.49;38.01
60061;BME280;45933;51.336;12.612;2023-05-22T09:03:05;99746.03;;;28.60;38.21
60061;BME280;45933;51.336;12.612;2023-05-22T09:05:34;99752.09;;;28.83;38.38
60061;BME280;45933;51.336;12.612;2023-05-22T09:08:01;99750.31;;;28.93;36.85
60061;BME280;45933;51.336;12.612;2023-05-22T09:10:28;99744.84;;;28.95;35.94
60061;BME280;45933;51.336;12.612;2023-05-22T09:13:03;99743.94;;;29.15;36.93
60061;BME280;45933;51.336;12.612;2023-05-22T09:15:30;99741.66;;;29.10;34.98
60061;BME280;45933;51.336;12.612;2023-05-22T09:17:56;99746.38;;;29.18;34.50
60061;BME280;45933;51.336;12.612;2023-05-22T09:20:21;99745.97;;;29.23;34.46
60061;BME280;45933;51.336;12.612;2023-05-22T09:22:47;99739.63;;;29.33;34.38
60061;BME280;45933;51.336;12.612;2023-05-22T09:25:17;99737.25;;;29.40;34.53
60061;BME280;45933;51.336;12.612;2023-05-22T09:27:49;99733.00;;;29.47;32.34
60061;BME280;45933;51.336;12.612;2023-05-22T09:30:17;99726.44;;;29.61;32.73
60061;BME280;45933;51.336;12.612;2023-05-22T09:32:49;99724.47;;;29.73;33.21
60061;BME280;45933;51.336;12.612;2023-05-22T09:35:17;99719.53;;;29.87;33.28
60061;BME280;45933;51.336;12.612;2023-05-22T09:37:43;99713.19;;;29.98;32.40
60061;BME280;45933;51.336;12.612;2023-05-22T09:40:11;99714.63;;;30.12;32.52
60061;BME280;45933;51.336;12.612;2023-05-22T09:42:38;99717.84;;;30.25;32.94
60061;BME280;45933;51.336;12.612;2023-05-22T09:45:04;99712.88;;;30.40;32.70
60061;BME280;45933;51.336;12.612;2023-05-22T09:47:30;99713.56;;;30.52;32.37
60061;BME280;45933;51.336;12.612;2023-05-22T09:49:56;99716.66;;;30.57;31.42
60061;BME280;45933;51.336;12.612;2023-05-22T09:52:27;99714.66;;;30.78;31.24
60061;BME280;45933;51.336;12.612;2023-05-22T09:54:54;99702.56;;;30.92;31.25
60061;BME280;45933;51.336;12.612;2023-05-22T09:57:23;99706.91;;;31.03;30.21
60061;BME280;45933;51.336;12.612;2023-05-22T09:59:54;99703.41;;;31.20;31.25
60061;BME280;45933;51.336;12.612;2023-05-22T10:02:23;99695.06;;;31.23;29.50
60061;BME280;45933;51.336;12.612;2023-05-22T10:04:50;99704.47;;;31.37;29.71
60061;BME280;45933;51.336;12.612;2023-05-22T10:07:21;99704.28;;;31.48;29.81
60061;BME280;45933;51.336;12.612;2023-05-22T10:09:50;99700.22;;;31.62;29.70
60061;BME280;45933;51.336;12.612;2023-05-22T10:12:18;99691.84;;;31.65;28.83
60061;BME280;45933;51.336;12.612;2023-05-22T10:14:45;99703.13;;;31.68;28.03
60061;BME280;45933;51.336;12.612;2023-05-22T10:17:11;99692.53;;;31.85;29.09
60061;BME280;45933;51.336;12.612;2023-05-22T10:19:37;99694.78;;;31.89;28.35
60061;BME280;45933;51.336;12.612;2023-05-22T10:22:03;99683.25;;;31.97;28.00
60061;BME280;45933;51.336;12.612;2023-05-22T10:24:30;99685.09;;;31.96;27.31
60061;BME280;45933;51.336;12.612;2023-05-22T10:26:56;99688.75;;;31.95;27.07
60061;BME280;45933;51.336;12.612;2023-05-22T10:29:26;99678.09;;;31.86;26.42
60061;BME280;45933;51.336;12.612;2023-05-22T10:31:59;99683.97;;;31.71;26.76
60061;BME280;45933;51.336;12.612;2023-05-22T10:34:49;99682.81;;;31.74;27.10
60061;BME280;45933;51.336;12.612;2023-05-22T10:37:29;99682.38;;;31.61;27.67
60061;BME280;45933;51.336;12.612;2023-05-22T10:40:08;99674.97;;;31.45;27.89
60061;BME280;45933;51.336;12.612;2023-05-22T10:42:36;99676.63;;;31.28;28.73
60061;BME280;45933;51.336;12.612;2023-05-22T10:45:03;99679.03;;;31.21;28.53
60061;BME280;45933;51.336;12.612;2023-05-22T10:47:32;99679.97;;;31.12;27.86
60061;BME280;45933;51.336;12.612;2023-05-22T10:50:10;99675.19;;;31.06;27.93
60061;BME280;45933;51.336;12.612;2023-05-22T10:52:37;99672.13;;;30.91;27.86
60061;BME280;45933;51.336;12.612;2023-05-22T10:55:07;99662.94;;;30.84;27.66
60061;BME280;45933;51.336;12.612;2023-05-22T10:57:33;99667.88;;;30.89;27.51
60061;BME280;45933;51.336;12.612;2023-05-22T11:00:08;99664.28;;;30.98;28.23
60061;BME280;45933;51.336;12.612;2023-05-22T11:02:39;99665.25;;;31.07;28.16
60061;BME280;45933;51.336;12.612;2023-05-22T11:07:42;99662.59;;;31.24;27.38
60061;BME280;45933;51.336;12.612;2023-05-22T11:10:07;99670.03;;;31.40;27.58
60061;BME280;45933;51.336;12.612;2023-05-22T11:12:33;99657.50;;;31.49;26.52
60061;BME280;45933;51.336;12.612;2023-05-22T11:15:05;99661.50;;;31.63;26.18
60061;BME280;45933;51.336;12.612;2023-05-22T11:20:19;99658.06;;;31.88;25.23
60061;BME280;45933;51.336;12.612;2023-05-22T11:22:58;99656.81;;;32.00;25.59
60061;BME280;45933;51.336;12.612;2023-05-22T11:25:25;99657.19;;;32.06;25.66
60061;BME280;45933;51.336;12.612;2023-05-22T11:27:52;99650.84;;;32.15;25.85
60061;BME280;45933;51.336;12.612;2023-05-22T11:30:17;99652.41;;;32.17;24.47
60061;BME280;45933;51.336;12.612;2023-05-22T11:32:44;99652.81;;;32.31;25.29
60061;BME280;45933;51.336;12.612;2023-05-22T11:35:20;99649.88;;;32.42;24.68
60061;BME280;45933;51.336;12.612;2023-05-22T11:37:47;99651.81;;;32.49;25.23
60061;BME280;45933;51.336;12.612;2023-05-22T11:40:17;99646.06;;;32.52;24.59
60061;BME280;45933;51.336;12.612;2023-05-22T11:42:43;99641.69;;;32.51;24.81
60061;BME280;45933;51.336;12.612;2023-05-22T11:45:09;99636.47;;;32.58;24.69
60061;BME280;45933;51.336;12.612;2023-05-22T11:47:35;99635.22;;;32.70;25.48
60061;BME280;45933;51.336;12.612;2023-05-22T11:50:01;99641.38;;;32.89;25.43
60061;BME280;45933;51.336;12.612;2023-05-22T11:52:35;99630.50;;;33.07;25.50
60061;BME280;45933;51.336;12.612;2023-05-22T11:55:00;99626.31;;;33.20;24.14
60061;BME280;45933;51.336;12.612;2023-05-22T11:57:29;99625.13;;;33.31;24.44
60061;BME280;45933;51.336;12.612;2023-05-22T11:59:55;99624.34;;;33.39;23.43
60061;BME280;45933;51.336;12.612;2023-05-22T12:02:20;99623.03;;;33.51;24.35
60061;BME280;45933;51.336;12.612;2023-05-22T12:04:45;99632.13;;;33.58;24.14
60061;BME280;45933;51.336;12.612;2023-05-22T12:07:11;99620.66;;;33.56;23.95
60061;BME280;45933;51.336;12.612;2023-05-22T12:09:41;99619.47;;;33.67;23.74
60061;BME280;45933;51.336;12.612;2023-05-22T12:12:09;99614.41;;;33.64;23.19
60061;BME280;45933;51.336;12.612;2023-05-22T12:14:35;99610.53;;;33.66;23.09
60061;BME280;45933;51.336;12.612;2023-05-22T12:17:01;99611.72;;;33.72;23.58
60061;BME280;45933;51.336;12.612;2023-05-22T12:19:28;99607.81;;;33.74;23.96
60061;BME280;45933;51.336;12.612;2023-05-22T12:21:53;99611.91;;;33.70;23.34
60061;BME280;45933;51.336;12.612;2023-05-22T12:24:19;99604.59;;;33.79;23.30
60061;BME280;45933;51.336;12.612;2023-05-22T12:26:54;99607.84;;;33.66;22.37
60061;BME280;45933;51.336;12.612;2023-05-22T12:29:23;99601.41;;;33.67;23.19
60061;BME280;45933;51.336;12.612;2023-05-22T12:31:49;99604.44;;;33.56;23.00
60061;BME280;45933;51.336;12.612;2023-05-22T12:34:15;99599.56;;;33.60;22.63
60061;BME280;45933;51.336;12.612;2023-05-22T12:36:45;99588.91;;;33.50;22.78
60061;BME280;45933;51.336;12.612;2023-05-22T12:39:15;99593.63;;;33.64;23.93
60061;BME280;45933;51.336;12.612;2023-05-22T12:41:41;99593.81;;;33.63;23.13
60061;BME280;45933;51.336;12.612;2023-05-22T12:44:06;99592.63;;;33.73;23.66
60061;BME280;45933;51.336;12.612;2023-05-22T12:46:32;99589.25;;;33.71;21.97
60061;BME280;45933;51.336;12.612;2023-05-22T12:48:59;99583.00;;;33.79;23.13
60061;BME280;45933;51.336;12.612;2023-05-22T12:51:30;99588.06;;;33.82;22.47
60061;BME280;45933;51.336;12.612;2023-05-22T12:53:56;99591.44;;;33.76;22.40
60061;BME280;45933;51.336;12.612;2023-05-22T12:56:22;99585.19;;;33.83;21.97
60061;BME280;45933;51.336;12.612;2023-05-22T12:58:47;99578.94;;;33.91;22.97